Time;durP1;ratioP1;P1;durP2;ratioP2;P2;SDS_P1;SDS_P2;PMS_P1;PMS_P2;Temp;Humidity;BMP_temperature;BMP_pressure;BME280_temperature;BME280_humidity;BME280_pressure;Samples;Min_cycle;Max_cycle;Signal;HPM_P1;HPM_P2
2022/12/12 00:00:09;;;;;;;26.10;22.50;;;;;;;-0.72;73.14;99198.70;108273;1278;21950;-77
2022/12/12 00:03:00;;;;;;;28.00;21.00;;;;;;;-0.74;73.26;99198.37;108325;1280;23767;-77
2022/12/12 00:05:29;;;;;;;26.90;21.20;;;;;;;-0.74;73.34;99199.73;108133;1279;21931;-78
2022/12/12 00:07:58;;;;;;;30.10;23.00;;;;;;;-0.73;73.27;99199.89;108292;1279;21937;-78
2022/12/12 00:10:27;;;;;;;25.40;21.80;;;;;;;-0.73;73.24;99201.43;108332;1279;23825;-78
2022/12/12 00:12:56;;;;;;;29.40;22.40;;;;;;;-0.75;73.30;99204.36;108178;1281;21958;-76
2022/12/12 00:15:26;;;;;;;24.30;20.70;;;;;;;-0.73;73.36;99200.06;108159;1279;22749;-77
2022/12/12 00:17:55;;;;;;;25.50;21.20;;;;;;;-0.71;73.38;99198.00;108349;1278;21938;-78
2022/12/12 00:20:24;;;;;;;27.20;21.70;;;;;;;-0.70;73.32;99194.23;108399;1279;22418;-76
2022/12/12 00:22:53;;;;;;;25.50;21.00;;;;;;;-0.70;73.31;99191.50;108290;1280;23077;-76
2022/12/12 00:25:21;;;;;;;29.20;23.30;;;;;;;-0.69;73.31;99189.27;108344;1279;21935;-76
2022/12/12 00:27:50;;;;;;;25.60;21.60;;;;;;;-0.69;73.23;99192.16;108442;1280;22272;-75
2022/12/12 00:30:19;;;;;;;29.00;21.40;;;;;;;-0.71;73.27;99196.64;108473;1277;23707;-77
2022/12/12 00:32:48;;;;;;;24.30;20.40;;;;;;;-0.70;73.34;99199.19;108444;1280;21940;-76
2022/12/12 00:35:17;;;;;;;24.80;20.60;;;;;;;-0.69;73.27;99198.14;108284;1281;21937;-75
2022/12/12 00:37:46;;;;;;;26.40;21.10;;;;;;;-0.67;73.37;99196.59;108233;1274;23575;-76
2022/12/12 00:40:15;;;;;;;25.60;19.60;;;;;;;-0.66;73.32;99195.38;108209;1280;23795;-76
2022/12/12 00:42:44;;;;;;;24.00;19.60;;;;;;;-0.64;73.35;99198.94;108187;1280;23613;-76
2022/12/12 00:45:12;;;;;;;23.40;19.70;;;;;;;-0.62;73.39;99199.44;108263;1280;21985;-76
2022/12/12 00:47:42;;;;;;;25.80;20.30;;;;;;;-0.62;73.36;99199.61;108168;1280;21945;-76
2022/12/12 00:50:11;;;;;;;25.00;20.40;;;;;;;-0.61;73.39;99201.13;108041;1285;21915;-75
2022/12/12 00:52:39;;;;;;;25.20;20.10;;;;;;;-0.61;73.33;99199.93;107896;1284;21947;-77
2022/12/12 00:55:11;;;;;;;25.50;20.10;;;;;;;-0.60;73.30;99201.98;108012;1284;21948;-75
2022/12/12 00:57:40;;;;;;;22.00;18.60;;;;;;;-0.58;73.24;99198.20;107668;1288;21971;-76
2022/12/12 01:00:14;;;;;;;25.30;20.20;;;;;;;-0.60;73.24;99199.76;107638;1288;23771;-75
2022/12/12 01:02:43;;;;;;;22.00;17.80;;;;;;;-0.61;73.18;99202.69;107551;1289;21942;-75
2022/12/12 01:05:13;;;;;;;22.30;18.60;;;;;;;-0.60;73.27;99202.84;107604;1288;23735;-76
2022/12/12 01:07:42;;;;;;;18.90;16.60;;;;;;;-0.60;73.30;99207.11;107575;1286;22814;-77
2022/12/12 01:10:11;;;;;;;21.50;17.60;;;;;;;-0.59;73.32;99206.41;107785;1284;22026;-77
2022/12/12 01:12:40;;;;;;;24.50;17.40;;;;;;;-0.58;73.24;99201.11;107954;1285;22937;-77
2022/12/12 01:15:10;;;;;;;22.50;18.40;;;;;;;-0.56;73.31;99198.86;107752;1284;22380;-76
2022/12/12 01:17:40;;;;;;;21.70;18.40;;;;;;;-0.54;73.32;99197.81;108119;1281;21932;-76
2022/12/12 01:20:23;;;;;;;18.60;16.50;;;;;;;-0.55;73.18;99197.14;108113;1280;21972;-77
2022/12/12 01:22:53;;;;;;;20.90;17.90;;;;;;;-0.58;73.24;99196.32;108119;1280;21904;-76
2022/12/12 01:25:22;;;;;;;19.90;17.50;;;;;;;-0.58;73.19;99192.05;108121;1280;21937;-75
2022/12/12 01:27:51;;;;;;;21.10;16.50;;;;;;;-0.58;73.22;99189.30;108200;1280;22911;-76
2022/12/12 01:30:21;;;;;;;19.60;16.70;;;;;;;-0.57;73.24;99189.13;108436;1279;23046;-76
2022/12/12 01:32:51;;;;;;;21.10;16.80;;;;;;;-0.60;73.06;99187.96;108148;1280;21942;-77
2022/12/12 01:35:21;;;;;;;19.50;16.90;;;;;;;-0.61;73.14;99186.27;108281;1279;23042;-76
2022/12/12 01:37:50;;;;;;;19.70;16.40;;;;;;;-0.64;73.11;99184.25;108123;1280;21960;-76
2022/12/12 01:40:24;;;;;;;19.10;17.00;;;;;;;-0.64;73.22;99181.34;108103;1280;23584;-76
2022/12/12 01:42:53;;;;;;;20.60;16.70;;;;;;;-0.64;73.13;99185.80;108254;1280;22887;-77
2022/12/12 01:45:57;;;;;;;18.80;16.80;;;;;;;-0.67;73.09;99187.70;108248;1280;22450;-75
2022/12/12 01:48:41;;;;;;;20.40;17.10;;;;;;;-0.75;73.12;99187.10;108204;1280;21937;-76
2022/12/12 01:51:16;;;;;;;19.60;16.10;;;;;;;-0.79;73.15;99188.17;108164;1280;23054;-75
2022/12/12 01:53:48;;;;;;;18.20;15.80;;;;;;;-0.81;73.16;99184.94;108257;1280;22987;-75
2022/12/12 01:56:18;;;;;;;19.70;16.80;;;;;;;-0.80;73.24;99184.60;108256;1280;22106;-74
2022/12/12 01:58:51;;;;;;;20.10;17.60;;;;;;;-0.80;73.23;99185.96;108235;1280;21949;-73
2022/12/12 02:01:21;;;;;;;17.80;15.70;;;;;;;-0.83;73.18;99180.70;108412;1280;23715;-75
2022/12/12 02:03:52;;;;;;;18.80;16.10;;;;;;;-0.84;73.23;99181.23;108407;1274;24292;-74
2022/12/12 02:06:27;;;;;;;19.40;15.30;;;;;;;-0.87;73.25;99185.18;108180;1269;23624;-76
2022/12/12 02:09:01;;;;;;;21.70;16.60;;;;;;;-0.88;73.19;99184.84;108040;1280;23689;-76
2022/12/12 02:11:36;;;;;;;18.90;16.40;;;;;;;-0.89;73.13;99185.72;108249;1280;23061;-76
2022/12/12 02:14:05;;;;;;;20.10;15.80;;;;;;;-0.91;73.21;99185.23;108371;1280;23807;-75
2022/12/12 02:16:57;;;;;;;19.70;15.70;;;;;;;-0.89;73.25;99191.02;108205;1272;23126;-75
2022/12/12 02:20:06;;;;;;;18.30;16.10;;;;;;;-0.90;73.23;99190.66;108334;1280;21978;-75
2022/12/12 02:23:09;;;;;;;23.50;16.60;;;;;;;-0.93;73.24;99192.40;108389;1277;23119;-75
2022/12/12 02:26:15;;;;;;;;;;;;;;;-0.95;73.32;99192.93;108308;1280;21988;-75
2022/12/12 02:28:44;;;;;;;20.90;16.00;;;;;;;-1.04;73.38;99197.13;108326;1277;21943;-75
2022/12/12 02:31:32;;;;;;;17.80;15.90;;;;;;;-1.06;73.38;99197.48;108414;1277;21943;-75
2022/12/12 02:34:17;;;;;;;19.70;16.30;;;;;;;-1.05;73.43;99202.77;108121;1280;22729;-76
2022/12/12 02:37:11;;;;;;;19.00;17.00;;;;;;;-1.02;73.52;99205.30;108230;1275;21942;-75
2022/12/12 02:40:19;;;;;;;17.80;15.90;;;;;;;-1.00;73.49;99207.52;108211;1280;23734;-77
2022/12/12 02:42:52;;;;;;;19.00;16.80;;;;;;;-1.00;73.57;99207.33;108432;1279;23169;-77
2022/12/12 02:45:44;;;;;;;16.10;14.40;;;;;;;-0.98;73.53;99205.60;108238;1280;23065;-77
2022/12/12 02:48:44;;;;;;;17.90;16.00;;;;;;;-0.95;73.53;99203.02;108264;1280;21945;-76
2022/12/12 02:51:14;;;;;;;18.10;16.20;;;;;;;-0.94;73.56;99203.02;108425;1280;23719;-76
2022/12/12 02:53:43;;;;;;;17.70;15.50;;;;;;;-0.92;73.52;99200.77;108131;1280;21947;-77
2022/12/12 02:56:50;;;;;;;16.70;14.90;;;;;;;-0.90;73.39;99200.41;108315;1280;23700;-76
2022/12/12 02:59:55;;;;;;;17.30;15.40;;;;;;;-0.93;73.37;99202.15;108285;1280;22001;-76
2022/12/12 03:09:19;;;;;;;18.20;15.60;;;;;;;-0.99;73.37;99200.83;108452;1279;21976;-76
2022/12/12 03:12:12;;;;;;;17.60;15.40;;;;;;;-0.97;73.44;99203.20;108505;1278;23063;-76
2022/12/12 03:14:47;;;;;;;17.10;14.90;;;;;;;-0.97;73.37;99201.33;108350;1280;23098;-76
2022/12/12 03:17:22;;;;;;;18.70;16.50;;;;;;;-0.96;73.41;99198.42;108424;1278;21950;-76
2022/12/12 03:20:21;;;;;;;18.00;16.10;;;;;;;-0.93;73.46;99193.77;108491;1278;24301;-76
2022/12/12 03:22:59;;;;;;;19.00;15.50;;;;;;;-0.92;73.47;99196.50;108484;1274;23055;-76
2022/12/12 03:26:05;;;;;;;20.60;18.10;;;;;;;-0.91;73.44;99196.84;108494;1278;22410;-76
2022/12/12 03:28:44;;;;;;;19.40;17.30;;;;;;;-0.90;73.39;99198.02;108462;1278;22174;-76
2022/12/12 03:31:18;;;;;;;21.10;18.60;;;;;;;-0.89;73.37;99197.85;108123;1280;21934;-77
2022/12/12 03:33:55;;;;;;;20.10;17.60;;;;;;;-0.90;73.23;99198.52;108215;1280;24985;-78
2022/12/12 03:36:42;;;;;;;20.10;17.90;;;;;;;-0.92;73.21;99198.04;108188;1280;24307;-78
2022/12/12 03:39:22;;;;;;;21.70;18.10;;;;;;;-0.94;73.26;99195.48;108413;1280;21983;-76
2022/12/12 03:42:01;;;;;;;21.80;18.80;;;;;;;-0.94;73.30;99195.33;108312;1281;21977;-76
2022/12/12 03:44:40;;;;;;;23.30;19.50;;;;;;;-0.98;73.24;99194.50;108372;1279;21943;-76
2022/12/12 03:47:16;;;;;;;23.60;21.00;;;;;;;-1.00;73.35;99190.08;108490;1275;22002;-76
2022/12/12 03:50:12;;;;;;;22.40;20.10;;;;;;;-1.02;73.41;99189.92;108269;1280;21948;-76
2022/12/12 03:53:23;;;;;;;21.90;19.40;;;;;;;-1.04;73.40;99187.40;108234;1280;21954;-77
2022/12/12 03:56:02;;;;;;;22.00;19.60;;;;;;;-1.08;73.50;99184.70;108395;1279;21948;-76
2022/12/12 03:58:45;;;;;;;23.70;19.40;;;;;;;-1.09;73.57;99181.63;108186;1280;21942;-76
2022/12/12 04:01:19;;;;;;;21.60;19.30;;;;;;;-1.11;73.68;99187.29;108514;1280;23752;-78
2022/12/12 04:04:03;;;;;;;24.80;20.80;;;;;;;-1.10;73.76;99185.39;108098;1280;23665;-77
2022/12/12 04:07:05;;;;;;;22.90;19.90;;;;;;;-1.10;73.80;99180.44;108435;1278;21938;-77
2022/12/12 04:12:57;;;;;;;26.80;21.20;;;;;;;-1.13;74.03;99171.77;108258;1280;23054;-77
2022/12/12 04:15:52;;;;;;;22.10;18.70;;;;;;;-1.14;74.09;99171.27;108153;1280;22093;-77
2022/12/12 04:19:04;;;;;;;21.40;19.20;;;;;;;-1.13;74.16;99170.23;108495;1279;22653;-76
2022/12/12 04:24:58;;;;;;;22.30;18.50;;;;;;;-1.16;74.34;99171.62;108400;1278;21945;-75
2022/12/12 04:27:43;;;;;;;23.40;19.20;;;;;;;-1.18;74.41;99169.25;108160;1280;21928;-76
2022/12/12 04:30:14;;;;;;;27.40;21.70;;;;;;;-1.19;74.45;99169.08;108295;1280;21962;-77
2022/12/12 04:33:08;;;;;;;25.10;20.50;;;;;;;-1.18;74.54;99171.48;108129;1280;24282;-76
2022/12/12 04:35:42;;;;;;;22.00;19.00;;;;;;;-1.20;74.68;99175.40;108422;1280;21932;-76
2022/12/12 04:38:22;;;;;;;21.50;19.00;;;;;;;-1.19;74.74;99172.84;108395;1280;21936;-77
2022/12/12 04:40:56;;;;;;;21.60;19.30;;;;;;;-1.16;74.81;99176.41;108206;1279;23593;-75
2022/12/12 04:43:34;;;;;;;21.70;19.40;;;;;;;-1.15;74.70;99173.33;108264;1280;21951;-76
2022/12/12 04:46:12;;;;;;;19.70;17.60;;;;;;;-1.13;74.88;99172.80;108291;1280;22726;-77
2022/12/12 04:49:16;;;;;;;21.40;18.30;;;;;;;-1.08;75.20;99175.30;108182;1280;21944;-74
2022/12/12 04:51:51;;;;;;;21.40;19.10;;;;;;;-1.04;75.13;99178.16;108373;1278;23961;-76
2022/12/12 04:54:31;;;;;;;22.40;19.60;;;;;;;-1.04;74.99;99177.64;108141;1279;21941;-77
2022/12/12 04:57:04;;;;;;;23.20;19.80;;;;;;;-1.03;75.06;99178.67;108191;1280;21944;-76
2022/12/12 04:59:34;;;;;;;20.80;17.10;;;;;;;-1.03;75.04;99177.13;108290;1279;21945;-76
2022/12/12 05:02:36;;;;;;;19.00;17.00;;;;;;;-1.02;75.09;99173.02;108416;1277;21937;-76
2022/12/12 05:05:17;;;;;;;;;;;;;;;-1.00;75.16;99173.02;108435;1280;22415;-75
2022/12/12 05:07:55;;;;;;;23.40;18.90;;;;;;;-1.05;75.32;99174.95;107939;1284;23698;-77
2022/12/12 05:10:25;;;;;;;22.90;19.30;;;;;;;-1.04;75.40;99173.73;107924;1286;23594;-75
2022/12/12 05:12:59;;;;;;;23.60;19.40;;;;;;;-1.02;75.38;99175.07;107773;1286;22412;-75
2022/12/12 05:15:28;;;;;;;22.20;18.30;;;;;;;-0.99;75.33;99173.17;107794;1285;23739;-76
2022/12/12 05:18:07;;;;;;;22.20;19.50;;;;;;;-0.96;75.34;99169.23;107808;1286;21951;-76
2022/12/12 05:20:37;;;;;;;24.10;20.10;;;;;;;-0.93;75.41;99170.89;107681;1286;22582;-76
2022/12/12 05:23:06;;;;;;;21.20;17.40;;;;;;;-0.89;75.45;99168.98;107782;1286;21969;-77
2022/12/12 05:25:35;;;;;;;21.90;19.20;;;;;;;-0.87;75.43;99168.61;107811;1280;21917;-77
2022/12/12 05:28:04;;;;;;;21.60;18.00;;;;;;;-0.85;75.43;99171.66;108135;1280;21933;-76
2022/12/12 05:30:33;;;;;;;22.30;18.60;;;;;;;-0.84;75.36;99170.80;108123;1279;21934;-76
2022/12/12 05:33:02;;;;;;;22.80;17.50;;;;;;;-0.80;75.45;99165.29;108088;1279;22989;-76
2022/12/12 05:35:32;;;;;;;22.60;18.70;;;;;;;-0.76;75.47;99162.51;108294;1280;24335;-76
2022/12/12 05:38:01;;;;;;;25.70;20.80;;;;;;;-0.74;75.42;99161.63;108076;1280;21957;-76
2022/12/12 05:40:30;;;;;;;25.60;20.30;;;;;;;-0.73;75.47;99158.54;108461;1280;21934;-77
2022/12/12 05:42:58;;;;;;;24.80;19.90;;;;;;;-0.70;75.50;99159.55;108537;1280;21932;-77
2022/12/12 05:45:27;;;;;;;25.10;19.30;;;;;;;-0.69;75.47;99161.23;108560;1280;21956;-78
2022/12/12 05:47:56;;;;;;;23.40;18.70;;;;;;;-0.67;75.55;99160.88;108202;1279;21981;-78
2022/12/12 05:50:25;;;;;;;22.60;18.20;;;;;;;-0.68;75.54;99159.52;108177;1275;21948;-79
2022/12/12 05:52:54;;;;;;;22.80;18.00;;;;;;;-0.68;75.42;99161.23;108368;1280;21902;-77
2022/12/12 05:55:23;;;;;;;22.80;17.30;;;;;;;-0.67;75.52;99161.39;108461;1279;21939;-77
2022/12/12 05:57:51;;;;;;;18.30;16.10;;;;;;;-0.66;75.50;99156.08;108403;1274;21923;-77
2022/12/12 06:00:21;;;;;;;21.50;16.30;;;;;;;-0.68;75.59;99158.67;108244;1278;21946;-77
2022/12/12 06:02:50;;;;;;;20.70;16.30;;;;;;;-0.66;75.66;99158.65;108316;1280;23679;-77
2022/12/12 06:05:18;;;;;;;20.50;16.60;;;;;;;-0.66;75.61;99158.48;108245;1280;22735;-78
2022/12/12 06:07:47;;;;;;;19.00;15.40;;;;;;;-0.65;75.78;99156.41;108275;1280;24051;-77
2022/12/12 06:10:17;;;;;;;19.50;15.50;;;;;;;-0.67;75.68;99157.64;108329;1280;21936;-78
2022/12/12 06:12:45;;;;;;;24.30;18.80;;;;;;;-0.68;75.72;99158.84;108150;1280;21948;-77
2022/12/12 06:15:14;;;;;;;19.20;16.40;;;;;;;-0.68;75.83;99159.36;108207;1280;21933;-78
2022/12/12 06:17:43;;;;;;;19.70;17.40;;;;;;;-0.67;75.87;99164.63;108027;1286;22422;-78
2022/12/12 06:20:12;;;;;;;19.00;15.50;;;;;;;-0.65;75.93;99167.68;108008;1285;21956;-78
2022/12/12 06:22:41;;;;;;;19.30;17.20;;;;;;;-0.64;75.97;99167.17;108078;1273;23357;-78
2022/12/12 06:25:11;;;;;;;19.60;16.20;;;;;;;-0.65;75.99;99168.89;108035;1286;21939;-78
2022/12/12 06:27:40;;;;;;;19.00;16.70;;;;;;;-0.64;76.10;99169.40;107850;1286;23684;-75
2022/12/12 06:30:09;;;;;;;21.80;17.80;;;;;;;-0.64;76.03;99169.90;107857;1286;23503;-76
2022/12/12 06:32:38;;;;;;;20.20;17.40;;;;;;;-0.62;76.05;99170.05;107970;1285;23611;-76
2022/12/12 06:35:08;;;;;;;20.20;18.20;;;;;;;-0.62;76.12;99169.02;108056;1280;24296;-77
2022/12/12 06:37:39;;;;;;;18.40;16.00;;;;;;;-0.61;76.16;99171.06;108282;1280;22145;-77
2022/12/12 06:40:09;;;;;;;20.00;17.60;;;;;;;-0.61;76.07;99171.74;108236;1280;21973;-77
2022/12/12 06:42:37;;;;;;;18.60;16.60;;;;;;;-0.62;76.15;99177.39;108209;1280;21936;-78
2022/12/12 06:45:14;;;;;;;23.40;18.20;;;;;;;-0.63;76.26;99178.08;108313;1280;21956;-78
2022/12/12 06:47:43;;;;;;;26.00;20.50;;;;;;;-0.60;76.33;99180.96;108279;1280;21935;-78
2022/12/12 06:50:12;;;;;;;22.00;18.50;;;;;;;-0.60;76.27;99183.02;108178;1271;21957;-77
2022/12/12 06:52:44;;;;;;;24.00;17.90;;;;;;;-0.58;76.33;99184.52;108160;1280;21937;-77
2022/12/12 06:55:15;;;;;;;20.20;18.00;;;;;;;-0.57;76.47;99181.61;108205;1280;21940;-77
2022/12/12 06:57:43;;;;;;;21.10;17.10;;;;;;;-0.56;76.45;99181.09;108171;1280;23039;-77
2022/12/12 07:00:13;;;;;;;20.80;17.40;;;;;;;-0.56;76.41;99177.48;108151;1280;23837;-77
2022/12/12 07:02:42;;;;;;;20.30;17.10;;;;;;;-0.55;76.49;99179.02;108225;1280;21938;-79
2022/12/12 07:05:11;;;;;;;23.00;18.20;;;;;;;-0.53;76.50;99179.87;108372;1279;22198;-77
2022/12/12 07:07:40;;;;;;;19.60;16.00;;;;;;;-0.51;76.48;99182.56;108026;1284;22986;-76
2022/12/12 07:10:09;;;;;;;21.70;19.40;;;;;;;-0.49;76.44;99183.91;107781;1288;21989;-76
2022/12/12 07:12:38;;;;;;;27.20;21.40;;;;;;;-0.47;76.45;99187.14;107773;1286;21941;-76
2022/12/12 07:15:07;;;;;;;27.70;19.50;;;;;;;-0.45;76.47;99186.95;107718;1285;22747;-77
2022/12/12 07:17:38;;;;;;;23.90;18.40;;;;;;;-0.43;76.41;99183.33;107996;1286;23698;-76
2022/12/12 07:20:08;;;;;;;27.30;20.20;;;;;;;-0.43;76.36;99182.98;107861;1286;21955;-78
2022/12/12 07:22:37;;;;;;;24.60;20.10;;;;;;;-0.44;76.36;99185.90;107697;1291;22732;-78
2022/12/12 07:25:07;;;;;;;21.60;17.20;;;;;;;-0.43;76.49;99187.42;107547;1286;21943;-77
2022/12/12 07:27:36;;;;;;;20.30;16.70;;;;;;;-0.42;76.41;99188.29;107799;1285;21963;-77
2022/12/12 07:30:06;;;;;;;19.60;17.30;;;;;;;-0.41;76.39;99186.23;107810;1285;21998;-78
2022/12/12 07:32:35;;;;;;;18.50;15.60;;;;;;;-0.39;76.35;99191.33;107793;1286;21958;-78
2022/12/12 07:35:04;;;;;;;21.50;18.10;;;;;;;-0.38;76.39;99185.66;107779;1286;21941;-78
2022/12/12 07:37:33;;;;;;;23.30;16.80;;;;;;;-0.34;76.37;99187.67;107645;1286;23615;-76
2022/12/12 07:40:02;;;;;;;26.10;18.00;;;;;;;-0.34;76.26;99184.41;107330;1289;21949;-77
2022/12/12 07:42:32;;;;;;;25.90;22.20;;;;;;;-0.35;76.24;99189.05;107821;1286;21970;-77
2022/12/12 07:45:00;;;;;;;26.70;21.50;;;;;;;-0.34;76.35;99187.83;107794;1286;21947;-77
2022/12/12 07:47:29;;;;;;;25.40;19.30;;;;;;;-0.31;76.43;99186.27;107192;1294;21963;-77
2022/12/12 07:49:58;;;;;;;24.80;18.10;;;;;;;-0.29;76.38;99190.17;107246;1284;22499;-77
2022/12/12 07:52:27;;;;;;;23.40;18.50;;;;;;;-0.27;76.27;99193.39;107110;1294;21961;-79
2022/12/12 07:54:56;;;;;;;27.60;18.80;;;;;;;-0.23;76.42;99194.70;107301;1294;24319;-77
2022/12/12 07:57:25;;;;;;;22.00;17.60;;;;;;;-0.16;76.18;99195.31;107202;1288;23200;-77
2022/12/12 07:59:53;;;;;;;21.50;17.00;;;;;;;-0.14;76.14;99197.86;107731;1288;21950;-76
2022/12/12 08:02:23;;;;;;;23.80;18.30;;;;;;;-0.14;76.14;99202.98;107759;1288;23692;-77
2022/12/12 08:04:52;;;;;;;20.90;16.30;;;;;;;-0.11;76.30;99206.38;107791;1283;21918;-77
2022/12/12 08:07:21;;;;;;;20.70;17.60;;;;;;;-0.06;76.15;99208.20;108249;1279;22394;-76
2022/12/12 08:09:50;;;;;;;31.80;24.50;;;;;;;-0.03;76.23;99204.90;108274;1278;21994;-76
2022/12/12 08:12:18;;;;;;;24.70;18.80;;;;;;;0.03;76.43;99204.99;108336;1283;23672;-76
2022/12/12 08:14:47;;;;;;;23.10;18.00;;;;;;;0.12;76.47;99211.88;108253;1283;21980;-77
2022/12/12 08:17:16;;;;;;;20.30;16.00;;;;;;;0.21;76.36;99208.85;108081;1283;21948;-76
2022/12/12 08:19:45;;;;;;;19.70;16.00;;;;;;;0.27;76.27;99207.91;108368;1283;21953;-76
2022/12/12 08:22:14;;;;;;;23.70;16.70;;;;;;;0.33;76.25;99205.77;108071;1283;22998;-76
2022/12/12 08:24:43;;;;;;;20.60;17.00;;;;;;;0.40;76.15;99205.50;107802;1283;21953;-76
2022/12/12 08:27:12;;;;;;;29.80;18.10;;;;;;;0.45;76.03;99207.14;108053;1281;23099;-76
2022/12/12 08:29:43;;;;;;;25.30;20.60;;;;;;;0.49;75.98;99206.05;108119;1280;23699;-76
2022/12/12 08:32:12;;;;;;;24.60;20.80;;;;;;;0.52;75.84;99207.70;108178;1280;22169;-77
2022/12/12 08:34:41;;;;;;;26.80;21.10;;;;;;;0.57;75.81;99203.20;107482;1280;1216692;-77
2022/12/12 08:37:10;;;;;;;23.70;18.40;;;;;;;0.62;75.69;99206.55;108367;1280;21945;-77
2022/12/12 08:39:39;;;;;;;24.50;18.80;;;;;;;0.66;75.70;99209.55;108380;1280;23581;-75
2022/12/12 08:42:07;;;;;;;21.90;18.90;;;;;;;0.70;75.61;99211.20;108204;1280;22005;-75
2022/12/12 08:44:36;;;;;;;23.90;19.70;;;;;;;0.74;75.44;99212.18;108466;1280;21847;-76
2022/12/12 08:47:05;;;;;;;23.80;19.10;;;;;;;0.74;75.33;99214.21;108090;1280;21953;-76
2022/12/12 08:49:34;;;;;;;24.90;20.20;;;;;;;0.77;75.25;99217.08;108199;1280;22984;-75
2022/12/12 08:52:08;;;;;;;24.60;20.20;;;;;;;0.77;75.08;99222.73;108308;1281;23729;-76
2022/12/12 08:54:37;;;;;;;26.30;22.60;;;;;;;0.78;75.17;99229.05;108393;1280;21955;-75
2022/12/12 08:57:06;;;;;;;26.30;22.20;;;;;;;0.79;75.01;99230.73;108230;1280;22002;-75
2022/12/12 08:59:36;;;;;;;23.90;18.40;;;;;;;0.82;75.02;99230.21;108443;1279;23027;-76
2022/12/12 09:02:05;;;;;;;26.20;18.90;;;;;;;0.85;74.97;99232.20;108159;1280;21935;-76
2022/12/12 09:04:34;;;;;;;23.50;18.50;;;;;;;0.86;74.87;99231.33;108169;1280;22589;-75
2022/12/12 09:07:03;;;;;;;21.60;17.80;;;;;;;0.87;74.86;99226.00;108136;1280;21942;-76
2022/12/12 09:09:36;;;;;;;31.30;24.10;;;;;;;0.90;74.82;99227.65;108207;1280;21957;-76
2022/12/12 09:12:06;;;;;;;22.00;19.70;;;;;;;0.93;74.78;99230.02;108205;1280;22293;-76
2022/12/12 09:14:35;;;;;;;28.50;21.20;;;;;;;0.95;74.73;99228.95;108123;1280;21933;-75
2022/12/12 09:17:03;;;;;;;25.40;22.90;;;;;;;0.96;74.55;99225.86;108552;1277;23789;-76
2022/12/12 09:19:33;;;;;;;24.40;20.10;;;;;;;0.96;74.42;99224.48;108288;1280;22425;-76
2022/12/12 09:22:02;;;;;;;19.40;17.00;;;;;;;0.97;74.46;99226.52;108163;1280;21935;-76
2022/12/12 09:24:31;;;;;;;18.90;15.90;;;;;;;1.00;74.32;99222.34;108310;1280;21944;-76
2022/12/12 09:27:00;;;;;;;20.30;18.20;;;;;;;1.05;74.51;99222.96;108176;1280;23146;-76
2022/12/12 09:29:29;;;;;;;28.40;20.50;;;;;;;1.09;74.39;99227.02;108281;1280;21948;-76
2022/12/12 09:31:58;;;;;;;22.70;20.20;;;;;;;1.11;74.15;99226.63;108116;1280;21936;-77
2022/12/12 09:34:27;;;;;;;23.00;20.10;;;;;;;1.06;73.89;99229.29;108449;1280;21974;-79
2022/12/12 09:36:56;;;;;;;23.30;18.50;;;;;;;1.00;73.73;99228.02;108404;1278;23069;-78
2022/12/12 09:39:24;;;;;;;19.40;17.00;;;;;;;0.96;73.72;99225.34;108152;1280;21945;-76
2022/12/12 09:41:54;;;;;;;19.80;17.90;;;;;;;0.90;73.55;99230.07;108272;1280;22297;-77
2022/12/12 09:44:25;;;;;;;19.50;17.10;;;;;;;0.84;73.59;99232.73;108120;1281;21948;-77
2022/12/12 09:47:03;;;;;;;23.90;16.30;;;;;;;0.80;73.63;99235.70;107773;1285;21944;-76
2022/12/12 09:49:51;;;;;;;19.80;16.60;;;;;;;0.75;73.62;99239.05;107903;1286;21945;-78
2022/12/12 09:52:34;;;;;;;18.40;14.70;;;;;;;0.74;73.75;99239.41;108074;1286;23685;-76
2022/12/12 09:55:22;;;;;;;28.10;23.40;;;;;;;0.76;73.84;99240.23;107772;1286;23213;-75
2022/12/12 09:58:15;;;;;;;47.40;42.80;;;;;;;0.78;73.88;99240.20;107534;1291;22487;-77
2022/12/12 10:01:03;;;;;;;19.20;16.80;;;;;;;0.80;73.87;99238.95;107525;1292;23706;-75
2022/12/12 10:03:57;;;;;;;22.10;15.00;;;;;;;0.82;73.85;99237.92;107610;1291;22369;-77
2022/12/12 10:06:38;;;;;;;16.80;12.70;;;;;;;0.78;73.63;99237.45;107845;1286;22093;-77
2022/12/12 10:09:33;;;;;;;18.60;15.60;;;;;;;0.74;73.60;99238.54;107771;1286;21937;-76
2022/12/12 10:12:06;;;;;;;18.40;15.60;;;;;;;0.72;73.77;99239.08;107982;1276;22012;-76
2022/12/12 10:14:55;;;;;;;21.50;15.10;;;;;;;0.73;73.74;99237.52;108015;1286;21962;-77
2022/12/12 10:17:34;;;;;;;19.50;15.20;;;;;;;0.76;73.75;99238.69;108248;1280;23582;-75
2022/12/12 10:20:11;;;;;;;24.70;17.50;;;;;;;0.75;73.70;99241.94;107768;1286;23646;-76
2022/12/12 10:22:55;;;;;;;21.20;17.30;;;;;;;0.76;73.70;99244.16;107820;1285;21939;-77
2022/12/12 10:25:54;;;;;;;18.70;15.30;;;;;;;0.78;73.63;99244.98;107870;1286;23723;-76
2022/12/12 10:28:26;;;;;;;18.10;14.80;;;;;;;0.77;73.63;99241.05;107981;1286;22890;-77
2022/12/12 10:31:29;;;;;;;21.30;14.70;;;;;;;0.77;73.46;99238.33;107833;1286;23596;-76
2022/12/12 10:34:03;;;;;;;26.70;15.50;;;;;;;0.80;73.62;99239.48;107797;1286;22657;-77
2022/12/12 10:37:12;;;;;;;20.70;16.10;;;;;;;0.85;73.66;99239.39;107836;1286;21972;-77
2022/12/12 10:40:34;;;;;;;20.30;14.70;;;;;;;0.89;73.71;99234.54;108593;1280;21960;-79
2022/12/12 10:43:38;;;;;;;21.10;14.20;;;;;;;0.93;73.57;99234.80;108580;1280;22069;-78
2022/12/12 10:46:16;;;;;;;20.20;15.70;;;;;;;0.93;73.41;99233.77;108143;1286;21979;-77
2022/12/12 10:48:47;;;;;;;22.10;16.30;;;;;;;0.95;73.40;99230.33;107558;1292;21954;-76
2022/12/12 10:51:20;;;;;;;25.40;17.50;;;;;;;1.00;73.47;99235.39;107640;1292;21948;-76
2022/12/12 10:53:48;;;;;;;23.70;17.10;;;;;;;1.08;73.59;99236.10;107321;1292;21999;-76
2022/12/12 10:56:25;;;;;;;20.50;16.70;;;;;;;1.17;73.41;99236.30;107353;1292;22871;-77
2022/12/12 10:58:58;;;;;;;25.10;16.10;;;;;;;1.19;73.19;99234.21;107598;1289;22753;-79
2022/12/12 11:01:34;;;;;;;17.80;14.50;;;;;;;1.16;72.99;99236.30;107868;1290;22906;-76
2022/12/12 11:04:23;;;;;;;18.80;13.90;;;;;;;1.16;73.00;99232.54;107746;1286;23112;-76
2022/12/12 11:06:54;;;;;;;42.70;38.20;;;;;;;1.21;73.03;99234.86;108092;1280;23770;-75
2022/12/12 11:09:27;;;;;;;38.20;34.50;;;;;;;1.23;72.94;99238.41;108379;1280;21982;-76
2022/12/12 11:11:56;;;;;;;17.50;12.70;;;;;;;1.24;72.84;99237.04;108467;1278;23017;-77
2022/12/12 11:14:39;;;;;;;16.10;11.70;;;;;;;1.25;72.82;99233.42;108074;1286;21949;-77
2022/12/12 11:17:34;;;;;;;17.40;13.00;;;;;;;1.23;72.69;99231.55;107906;1286;21967;-81
2022/12/12 11:20:12;;;;;;;14.00;12.40;;;;;;;1.20;72.69;99231.10;107524;1295;22359;-82
2022/12/12 11:22:42;;;;;;;16.40;11.80;;;;;;;1.18;72.48;99235.08;107163;1294;21979;-76
2022/12/12 11:25:32;;;;;;;14.80;13.20;;;;;;;1.15;72.51;99238.20;107169;1290;21965;-77
2022/12/12 11:28:02;;;;;;;16.60;13.70;;;;;;;1.09;72.46;99235.58;107206;1292;23116;-77
2022/12/12 11:30:42;;;;;;;14.00;12.50;;;;;;;1.04;72.48;99231.19;107236;1292;21960;-77
2022/12/12 11:33:20;;;;;;;17.90;13.50;;;;;;;1.01;72.51;99231.09;107697;1286;23677;-78
2022/12/12 11:35:55;;;;;;;17.90;14.70;;;;;;;1.03;72.68;99230.20;107761;1286;22407;-76
2022/12/12 11:38:54;;;;;;;18.30;14.40;;;;;;;1.04;72.70;99235.65;108100;1280;22011;-78
2022/12/12 11:42:01;;;;;;;14.40;12.80;;;;;;;1.04;72.71;99236.70;108627;1280;23684;-78
2022/12/12 11:44:35;;;;;;;26.60;18.40;;;;;;;1.03;72.72;99240.66;108563;1280;21935;-77
2022/12/12 11:47:37;;;;;;;19.10;14.50;;;;;;;1.04;72.73;99239.25;108184;1280;21947;-77
2022/12/12 11:50:28;;;;;;;16.80;12.90;;;;;;;1.04;72.72;99238.56;108156;1280;23842;-77
2022/12/12 11:53:02;;;;;;;22.30;16.50;;;;;;;1.03;72.65;99240.82;108370;1280;21969;-76
2022/12/12 11:55:58;;;;;;;20.90;15.70;;;;;;;1.04;72.80;99237.38;108024;1286;21984;-77
2022/12/12 11:58:44;;;;;;;16.20;12.60;;;;;;;1.06;72.89;99235.45;107988;1286;23059;-76
2022/12/12 12:01:25;;;;;;;17.80;13.40;;;;;;;1.07;72.76;99237.48;107764;1285;23316;-76
2022/12/12 12:04:28;;;;;;;18.30;13.30;;;;;;;1.08;72.79;99240.89;108047;1286;21947;-76